sensor_id;sensor_type;location;lat;lon;timestamp;P1;durP1;ratioP1;P2;durP2;ratioP2
8066;SDS011;4076;48.076;9.118;2023-08-08T00:01:43;2.20;;;1.87;;
8066;SDS011;4076;48.076;9.118;2023-08-08T00:04:09;1.97;;;1.77;;
8066;SDS011;4076;48.076;9.118;2023-08-08T00:06:35;2.00;;;1.90;;
8066;SDS011;4076;48.076;9.118;2023-08-08T00:09:02;2.17;;;1.97;;
8066;SDS011;4076;48.076;9.118;2023-08-08T00:11:28;3.53;;;1.87;;
8066;SDS011;4076;48.076;9.118;2023-08-08T00:13:55;2.20;;;1.70;;
8066;SDS011;4076;48.076;9.118;2023-08-08T00:16:21;2.03;;;1.80;;
8066;SDS011;4076;48.076;9.118;2023-08-08T00:18:46;1.70;;;1.60;;
8066;SDS011;4076;48.076;9.118;2023-08-08T00:21:14;2.83;;;2.33;;
8066;SDS011;4076;48.076;9.118;2023-08-08T00:23:39;2.07;;;1.97;;
8066;SDS011;4076;48.076;9.118;2023-08-08T00:26:05;2.30;;;2.10;;
8066;SDS011;4076;48.076;9.118;2023-08-08T00:28:31;2.30;;;2.00;;
8066;SDS011;4076;48.076;9.118;2023-08-08T00:30:56;1.97;;;1.77;;
8066;SDS011;4076;48.076;9.118;2023-08-08T00:33:22;1.77;;;1.60;;
8066;SDS011;4076;48.076;9.118;2023-08-08T00:35:47;2.07;;;1.90;;
8066;SDS011;4076;48.076;9.118;2023-08-08T00:38:13;1.87;;;1.77;;
8066;SDS011;4076;48.076;9.118;2023-08-08T00:40:39;3.70;;;1.80;;
8066;SDS011;4076;48.076;9.118;2023-08-08T00:43:05;1.93;;;1.80;;
8066;SDS011;4076;48.076;9.118;2023-08-08T00:45:30;1.90;;;1.80;;
8066;SDS011;4076;48.076;9.118;2023-08-08T00:47:56;2.50;;;2.40;;
8066;SDS011;4076;48.076;9.118;2023-08-08T00:50:21;2.00;;;1.80;;
8066;SDS011;4076;48.076;9.118;2023-08-08T00:52:48;2.33;;;1.73;;
8066;SDS011;4076;48.076;9.118;2023-08-08T00:55:14;2.20;;;2.00;;
8066;SDS011;4076;48.076;9.118;2023-08-08T00:57:40;1.90;;;1.77;;
8066;SDS011;4076;48.076;9.118;2023-08-08T01:00:06;1.50;;;1.40;;
8066;SDS011;4076;48.076;9.118;2023-08-08T01:02:35;2.10;;;1.80;;
8066;SDS011;4076;48.076;9.118;2023-08-08T01:05:00;2.00;;;1.80;;
8066;SDS011;4076;48.076;9.118;2023-08-08T01:10:15;1.70;;;1.60;;
8066;SDS011;4076;48.076;9.118;2023-08-08T01:12:45;2.03;;;1.93;;
8066;SDS011;4076;48.076;9.118;2023-08-08T01:15:13;2.10;;;1.77;;
8066;SDS011;4076;48.076;9.118;2023-08-08T01:17:41;1.70;;;1.60;;
8066;SDS011;4076;48.076;9.118;2023-08-08T01:20:09;1.50;;;1.40;;
8066;SDS011;4076;48.076;9.118;2023-08-08T01:22:36;1.87;;;1.67;;
8066;SDS011;4076;48.076;9.118;2023-08-08T01:25:05;2.63;;;2.43;;
8066;SDS011;4076;48.076;9.118;2023-08-08T01:27:31;2.40;;;1.70;;
8066;SDS011;4076;48.076;9.118;2023-08-08T01:29:57;2.10;;;2.00;;
8066;SDS011;4076;48.076;9.118;2023-08-08T01:32:23;3.20;;;1.90;;
8066;SDS011;4076;48.076;9.118;2023-08-08T01:34:49;2.70;;;2.20;;
8066;SDS011;4076;48.076;9.118;2023-08-08T01:37:17;1.60;;;1.50;;
8066;SDS011;4076;48.076;9.118;2023-08-08T01:39:46;1.90;;;1.70;;
8066;SDS011;4076;48.076;9.118;2023-08-08T01:42:14;2.07;;;1.70;;
8066;SDS011;4076;48.076;9.118;2023-08-08T01:44:43;1.80;;;1.70;;
8066;SDS011;4076;48.076;9.118;2023-08-08T01:47:09;4.30;;;2.63;;
8066;SDS011;4076;48.076;9.118;2023-08-08T01:49:35;2.00;;;1.90;;
8066;SDS011;4076;48.076;9.118;2023-08-08T01:52:00;2.80;;;1.50;;
8066;SDS011;4076;48.076;9.118;2023-08-08T01:54:26;2.27;;;2.13;;
8066;SDS011;4076;48.076;9.118;2023-08-08T01:56:51;2.27;;;1.60;;
8066;SDS011;4076;48.076;9.118;2023-08-08T01:59:17;2.43;;;1.70;;
8066;SDS011;4076;48.076;9.118;2023-08-08T02:01:43;2.10;;;1.97;;
8066;SDS011;4076;48.076;9.118;2023-08-08T02:04:08;2.13;;;1.77;;
8066;SDS011;4076;48.076;9.118;2023-08-08T02:06:35;5.30;;;2.90;;
8066;SDS011;4076;48.076;9.118;2023-08-08T02:09:00;2.40;;;2.30;;
8066;SDS011;4076;48.076;9.118;2023-08-08T02:11:26;1.93;;;1.83;;
8066;SDS011;4076;48.076;9.118;2023-08-08T02:13:51;1.57;;;1.47;;
8066;SDS011;4076;48.076;9.118;2023-08-08T02:16:17;1.60;;;1.50;;
8066;SDS011;4076;48.076;9.118;2023-08-08T02:18:43;1.70;;;1.60;;
8066;SDS011;4076;48.076;9.118;2023-08-08T02:21:08;2.53;;;2.33;;
8066;SDS011;4076;48.076;9.118;2023-08-08T02:23:34;1.87;;;1.60;;
8066;SDS011;4076;48.076;9.118;2023-08-08T02:26:00;4.00;;;3.00;;
8066;SDS011;4076;48.076;9.118;2023-08-08T02:28:25;1.70;;;1.60;;
8066;SDS011;4076;48.076;9.118;2023-08-08T02:30:52;2.47;;;2.23;;
8066;SDS011;4076;48.076;9.118;2023-08-08T02:33:18;3.37;;;1.97;;
8066;SDS011;4076;48.076;9.118;2023-08-08T02:35:44;1.60;;;1.50;;
8066;SDS011;4076;48.076;9.118;2023-08-08T02:38:09;1.70;;;1.60;;
8066;SDS011;4076;48.076;9.118;2023-08-08T02:40:35;1.70;;;1.60;;
8066;SDS011;4076;48.076;9.118;2023-08-08T02:43:01;2.60;;;2.27;;
8066;SDS011;4076;48.076;9.118;2023-08-08T02:45:26;1.70;;;1.60;;
8066;SDS011;4076;48.076;9.118;2023-08-08T02:47:52;1.67;;;1.57;;
8066;SDS011;4076;48.076;9.118;2023-08-08T02:50:17;3.00;;;2.00;;
8066;SDS011;4076;48.076;9.118;2023-08-08T02:52:44;2.50;;;1.70;;
8066;SDS011;4076;48.076;9.118;2023-08-08T02:55:09;1.97;;;1.50;;
8066;SDS011;4076;48.076;9.118;2023-08-08T02:57:35;2.03;;;1.93;;
8066;SDS011;4076;48.076;9.118;2023-08-08T03:00:01;1.73;;;1.63;;
8066;SDS011;4076;48.076;9.118;2023-08-08T03:02:28;3.33;;;2.17;;
8066;SDS011;4076;48.076;9.118;2023-08-08T03:04:54;3.60;;;2.03;;
8066;SDS011;4076;48.076;9.118;2023-08-08T03:07:19;3.07;;;1.80;;
8066;SDS011;4076;48.076;9.118;2023-08-08T03:09:45;2.07;;;1.87;;
8066;SDS011;4076;48.076;9.118;2023-08-08T03:12:11;1.90;;;1.80;;
8066;SDS011;4076;48.076;9.118;2023-08-08T03:14:36;2.60;;;1.80;;
8066;SDS011;4076;48.076;9.118;2023-08-08T03:17:02;1.80;;;1.70;;
8066;SDS011;4076;48.076;9.118;2023-08-08T03:19:27;1.93;;;1.83;;
8066;SDS011;4076;48.076;9.118;2023-08-08T03:21:53;2.30;;;2.10;;
8066;SDS011;4076;48.076;9.118;2023-08-08T03:24:18;2.70;;;1.90;;
8066;SDS011;4076;48.076;9.118;2023-08-08T03:26:44;2.27;;;2.00;;
8066;SDS011;4076;48.076;9.118;2023-08-08T03:29:10;1.90;;;1.80;;
8066;SDS011;4076;48.076;9.118;2023-08-08T03:31:36;1.93;;;1.70;;
8066;SDS011;4076;48.076;9.118;2023-08-08T03:34:01;3.83;;;1.60;;
8066;SDS011;4076;48.076;9.118;2023-08-08T03:36:27;1.50;;;1.40;;
8066;SDS011;4076;48.076;9.118;2023-08-08T03:38:53;1.70;;;1.60;;
8066;SDS011;4076;48.076;9.118;2023-08-08T03:41:19;1.70;;;1.60;;
8066;SDS011;4076;48.076;9.118;2023-08-08T03:43:44;2.20;;;2.10;;
8066;SDS011;4076;48.076;9.118;2023-08-08T03:46:10;2.20;;;2.10;;
8066;SDS011;4076;48.076;9.118;2023-08-08T03:48:36;2.70;;;2.13;;
8066;SDS011;4076;48.076;9.118;2023-08-08T03:51:03;2.00;;;1.90;;
8066;SDS011;4076;48.076;9.118;2023-08-08T03:53:28;2.10;;;2.00;;
8066;SDS011;4076;48.076;9.118;2023-08-08T03:55:54;1.80;;;1.70;;
8066;SDS011;4076;48.076;9.118;2023-08-08T03:58:20;2.27;;;2.07;;
8066;SDS011;4076;48.076;9.118;2023-08-08T04:00:45;2.90;;;2.70;;
8066;SDS011;4076;48.076;9.118;2023-08-08T04:03:15;2.03;;;1.93;;
8066;SDS011;4076;48.076;9.118;2023-08-08T04:05:45;2.40;;;2.20;;
8066;SDS011;4076;48.076;9.118;2023-08-08T04:08:12;1.80;;;1.70;;
8066;SDS011;4076;48.076;9.118;2023-08-08T04:10:38;4.13;;;2.90;;
8066;SDS011;4076;48.076;9.118;2023-08-08T04:13:03;2.00;;;1.90;;
8066;SDS011;4076;48.076;9.118;2023-08-08T04:15:29;2.90;;;2.33;;
8066;SDS011;4076;48.076;9.118;2023-08-08T04:17:54;1.60;;;1.50;;
8066;SDS011;4076;48.076;9.118;2023-08-08T04:20:20;3.40;;;2.17;;
8066;SDS011;4076;48.076;9.118;2023-08-08T04:22:46;2.07;;;1.97;;
8066;SDS011;4076;48.076;9.118;2023-08-08T04:25:11;2.30;;;2.17;;
8066;SDS011;4076;48.076;9.118;2023-08-08T04:27:37;2.50;;;2.30;;
8066;SDS011;4076;48.076;9.118;2023-08-08T04:30:02;1.93;;;1.73;;
8066;SDS011;4076;48.076;9.118;2023-08-08T04:32:29;2.43;;;2.23;;
8066;SDS011;4076;48.076;9.118;2023-08-08T04:34:55;2.53;;;2.33;;
8066;SDS011;4076;48.076;9.118;2023-08-08T04:37:21;2.20;;;2.10;;
8066;SDS011;4076;48.076;9.118;2023-08-08T04:39:46;2.53;;;2.33;;
8066;SDS011;4076;48.076;9.118;2023-08-08T04:42:12;2.50;;;2.30;;
8066;SDS011;4076;48.076;9.118;2023-08-08T04:44:37;2.67;;;2.43;;
8066;SDS011;4076;48.076;9.118;2023-08-08T04:47:03;2.30;;;2.20;;
8066;SDS011;4076;48.076;9.118;2023-08-08T04:49:29;2.57;;;2.10;;
8066;SDS011;4076;48.076;9.118;2023-08-08T04:51:54;2.00;;;1.90;;
8066;SDS011;4076;48.076;9.118;2023-08-08T04:54:20;1.97;;;1.73;;
8066;SDS011;4076;48.076;9.118;2023-08-08T04:56:46;1.83;;;1.73;;
8066;SDS011;4076;48.076;9.118;2023-08-08T04:59:11;2.13;;;2.03;;
8066;SDS011;4076;48.076;9.118;2023-08-08T05:01:37;2.83;;;2.40;;
8066;SDS011;4076;48.076;9.118;2023-08-08T05:04:02;2.83;;;2.00;;
8066;SDS011;4076;48.076;9.118;2023-08-08T05:06:28;2.50;;;2.10;;
8066;SDS011;4076;48.076;9.118;2023-08-08T05:08:54;2.90;;;1.70;;
8066;SDS011;4076;48.076;9.118;2023-08-08T05:11:21;1.73;;;1.63;;
8066;SDS011;4076;48.076;9.118;2023-08-08T05:13:47;1.70;;;1.60;;
8066;SDS011;4076;48.076;9.118;2023-08-08T05:16:13;2.17;;;1.97;;
8066;SDS011;4076;48.076;9.118;2023-08-08T05:18:38;1.80;;;1.70;;
8066;SDS011;4076;48.076;9.118;2023-08-08T05:21:04;2.63;;;1.67;;
8066;SDS011;4076;48.076;9.118;2023-08-08T05:23:29;2.00;;;1.90;;
8066;SDS011;4076;48.076;9.118;2023-08-08T05:25:55;2.40;;;2.20;;
8066;SDS011;4076;48.076;9.118;2023-08-08T05:28:20;3.40;;;2.97;;
8066;SDS011;4076;48.076;9.118;2023-08-08T05:30:46;3.07;;;2.10;;
8066;SDS011;4076;48.076;9.118;2023-08-08T05:33:12;2.30;;;1.83;;
8066;SDS011;4076;48.076;9.118;2023-08-08T05:35:38;2.47;;;1.90;;
8066;SDS011;4076;48.076;9.118;2023-08-08T05:38:03;1.90;;;1.80;;
8066;SDS011;4076;48.076;9.118;2023-08-08T05:40:29;2.73;;;2.30;;
8066;SDS011;4076;48.076;9.118;2023-08-08T05:42:54;2.00;;;1.70;;
8066;SDS011;4076;48.076;9.118;2023-08-08T05:45:20;4.27;;;1.97;;
8066;SDS011;4076;48.076;9.118;2023-08-08T05:47:46;2.30;;;2.10;;
8066;SDS011;4076;48.076;9.118;2023-08-08T05:50:11;1.83;;;1.73;;
8066;SDS011;4076;48.076;9.118;2023-08-08T05:52:37;2.43;;;2.23;;
8066;SDS011;4076;48.076;9.118;2023-08-08T05:55:02;2.30;;;2.10;;
8066;SDS011;4076;48.076;9.118;2023-08-08T05:57:28;2.60;;;2.40;;
8066;SDS011;4076;48.076;9.118;2023-08-08T05:59:54;2.30;;;2.10;;
8066;SDS011;4076;48.076;9.118;2023-08-08T06:02:19;1.90;;;1.80;;
8066;SDS011;4076;48.076;9.118;2023-08-08T06:04:45;1.70;;;1.60;;
8066;SDS011;4076;48.076;9.118;2023-08-08T06:07:11;1.80;;;1.70;;
8066;SDS011;4076;48.076;9.118;2023-08-08T06:09:36;1.87;;;1.77;;
8066;SDS011;4076;48.076;9.118;2023-08-08T06:12:02;3.03;;;2.17;;
8066;SDS011;4076;48.076;9.118;2023-08-08T06:14:28;1.80;;;1.70;;
8066;SDS011;4076;48.076;9.118;2023-08-08T06:16:55;1.80;;;1.70;;
8066;SDS011;4076;48.076;9.118;2023-08-08T06:19:20;1.63;;;1.53;;
8066;SDS011;4076;48.076;9.118;2023-08-08T06:21:46;4.23;;;2.40;;
8066;SDS011;4076;48.076;9.118;2023-08-08T06:24:12;2.03;;;1.40;;
8066;SDS011;4076;48.076;9.118;2023-08-08T06:26:37;1.70;;;1.60;;
8066;SDS011;4076;48.076;9.118;2023-08-08T06:29:03;5.00;;;1.70;;
8066;SDS011;4076;48.076;9.118;2023-08-08T06:31:29;1.67;;;1.57;;
8066;SDS011;4076;48.076;9.118;2023-08-08T06:33:55;2.20;;;2.10;;
8066;SDS011;4076;48.076;9.118;2023-08-08T06:36:20;1.73;;;1.63;;
8066;SDS011;4076;48.076;9.118;2023-08-08T06:38:46;3.67;;;2.93;;
8066;SDS011;4076;48.076;9.118;2023-08-08T06:41:11;1.70;;;1.60;;
8066;SDS011;4076;48.076;9.118;2023-08-08T06:43:37;1.50;;;1.40;;
8066;SDS011;4076;48.076;9.118;2023-08-08T06:46:03;1.73;;;1.50;;
8066;SDS011;4076;48.076;9.118;2023-08-08T06:48:29;1.70;;;1.60;;
8066;SDS011;4076;48.076;9.118;2023-08-08T06:50:55;1.43;;;1.33;;
8066;SDS011;4076;48.076;9.118;2023-08-08T06:53:21;1.60;;;1.50;;
8066;SDS011;4076;48.076;9.118;2023-08-08T06:55:46;1.73;;;1.63;;
8066;SDS011;4076;48.076;9.118;2023-08-08T06:58:12;1.80;;;1.50;;
8066;SDS011;4076;48.076;9.118;2023-08-08T07:00:37;1.57;;;1.47;;
8066;SDS011;4076;48.076;9.118;2023-08-08T07:03:03;1.50;;;1.40;;
8066;SDS011;4076;48.076;9.118;2023-08-08T07:05:29;1.70;;;1.60;;
8066;SDS011;4076;48.076;9.118;2023-08-08T07:07:55;1.60;;;1.50;;
8066;SDS011;4076;48.076;9.118;2023-08-08T07:10:20;1.60;;;1.50;;
8066;SDS011;4076;48.076;9.118;2023-08-08T07:12:46;1.50;;;1.40;;
8066;SDS011;4076;48.076;9.118;2023-08-08T07:15:11;1.70;;;1.60;;
8066;SDS011;4076;48.076;9.118;2023-08-08T07:17:37;1.40;;;1.30;;
8066;SDS011;4076;48.076;9.118;2023-08-08T07:20:03;2.00;;;1.90;;
8066;SDS011;4076;48.076;9.118;2023-08-08T07:22:30;1.70;;;1.60;;
8066;SDS011;4076;48.076;9.118;2023-08-08T07:24:57;1.33;;;1.23;;
8066;SDS011;4076;48.076;9.118;2023-08-08T07:27:23;1.67;;;1.57;;
8066;SDS011;4076;48.076;9.118;2023-08-08T07:29:48;1.40;;;1.30;;
8066;SDS011;4076;48.076;9.118;2023-08-08T07:32:14;1.20;;;1.10;;
8066;SDS011;4076;48.076;9.118;2023-08-08T07:34:39;1.80;;;1.70;;
8066;SDS011;4076;48.076;9.118;2023-08-08T07:37:05;1.57;;;1.47;;
8066;SDS011;4076;48.076;9.118;2023-08-08T07:39:31;1.40;;;1.30;;
8066;SDS011;4076;48.076;9.118;2023-08-08T07:41:56;1.90;;;1.80;;
8066;SDS011;4076;48.076;9.118;2023-08-08T07:44:22;1.50;;;1.40;;
8066;SDS011;4076;48.076;9.118;2023-08-08T07:46:48;2.70;;;1.50;;
8066;SDS011;4076;48.076;9.118;2023-08-08T07:49:14;1.30;;;1.20;;
8066;SDS011;4076;48.076;9.118;2023-08-08T07:51:39;1.60;;;1.50;;
8066;SDS011;4076;48.076;9.118;2023-08-08T07:54:05;1.70;;;1.60;;
8066;SDS011;4076;48.076;9.118;2023-08-08T07:56:33;1.40;;;1.30;;
8066;SDS011;4076;48.076;9.118;2023-08-08T07:58:59;1.83;;;1.73;;
8066;SDS011;4076;48.076;9.118;2023-08-08T08:01:26;1.57;;;1.47;;
8066;SDS011;4076;48.076;9.118;2023-08-08T08:03:54;2.50;;;1.60;;
8066;SDS011;4076;48.076;9.118;2023-08-08T08:06:20;1.50;;;1.40;;
8066;SDS011;4076;48.076;9.118;2023-08-08T08:08:46;2.07;;;1.87;;
8066;SDS011;4076;48.076;9.118;2023-08-08T08:11:11;1.43;;;1.33;;
8066;SDS011;4076;48.076;9.118;2023-08-08T08:13:38;2.03;;;1.50;;
8066;SDS011;4076;48.076;9.118;2023-08-08T08:16:04;1.30;;;1.20;;
8066;SDS011;4076;48.076;9.118;2023-08-08T08:18:30;1.80;;;1.70;;
8066;SDS011;4076;48.076;9.118;2023-08-08T08:20:57;1.50;;;1.40;;
8066;SDS011;4076;48.076;9.118;2023-08-08T08:23:22;1.60;;;1.50;;
8066;SDS011;4076;48.076;9.118;2023-08-08T08:25:48;2.23;;;1.67;;
8066;SDS011;4076;48.076;9.118;2023-08-08T08:28:15;3.43;;;1.60;;
8066;SDS011;4076;48.076;9.118;2023-08-08T08:30:41;1.87;;;1.60;;
8066;SDS011;4076;48.076;9.118;2023-08-08T08:33:06;1.93;;;1.40;;
8066;SDS011;4076;48.076;9.118;2023-08-08T08:35:33;1.57;;;1.30;;
8066;SDS011;4076;48.076;9.118;2023-08-08T08:37:59;1.37;;;1.27;;
8066;SDS011;4076;48.076;9.118;2023-08-08T08:40:25;1.50;;;1.40;;
8066;SDS011;4076;48.076;9.118;2023-08-08T08:42:52;1.47;;;1.37;;
8066;SDS011;4076;48.076;9.118;2023-08-08T08:45:18;2.53;;;2.33;;
8066;SDS011;4076;48.076;9.118;2023-08-08T08:47:46;1.57;;;1.47;;
8066;SDS011;4076;48.076;9.118;2023-08-08T08:50:16;1.73;;;1.60;;
8066;SDS011;4076;48.076;9.118;2023-08-08T08:52:43;1.50;;;1.40;;
8066;SDS011;4076;48.076;9.118;2023-08-08T08:55:09;1.77;;;1.67;;
8066;SDS011;4076;48.076;9.118;2023-08-08T08:57:35;1.63;;;1.53;;
8066;SDS011;4076;48.076;9.118;2023-08-08T09:00:01;1.50;;;1.40;;
8066;SDS011;4076;48.076;9.118;2023-08-08T09:02:29;1.50;;;1.40;;
8066;SDS011;4076;48.076;9.118;2023-08-08T09:04:55;2.93;;;2.73;;
8066;SDS011;4076;48.076;9.118;2023-08-08T09:07:22;1.30;;;1.20;;
8066;SDS011;4076;48.076;9.118;2023-08-08T09:09:51;2.00;;;1.90;;
8066;SDS011;4076;48.076;9.118;2023-08-08T09:12:17;2.23;;;2.13;;
8066;SDS011;4076;48.076;9.118;2023-08-08T09:14:44;1.97;;;1.40;;
8066;SDS011;4076;48.076;9.118;2023-08-08T09:17:10;1.63;;;1.53;;
8066;SDS011;4076;48.076;9.118;2023-08-08T09:19:41;1.47;;;1.37;;
8066;SDS011;4076;48.076;9.118;2023-08-08T09:22:09;2.57;;;1.60;;
8066;SDS011;4076;48.076;9.118;2023-08-08T09:24:37;2.73;;;1.60;;
8066;SDS011;4076;48.076;9.118;2023-08-08T09:27:05;1.50;;;1.40;;
8066;SDS011;4076;48.076;9.118;2023-08-08T09:29:32;1.83;;;1.73;;
8066;SDS011;4076;48.076;9.118;2023-08-08T09:31:58;1.60;;;1.50;;
8066;SDS011;4076;48.076;9.118;2023-08-08T09:34:24;1.80;;;1.70;;
8066;SDS011;4076;48.076;9.118;2023-08-08T09:36:51;1.70;;;1.60;;
8066;SDS011;4076;48.076;9.118;2023-08-08T09:39:17;1.70;;;1.60;;
8066;SDS011;4076;48.076;9.118;2023-08-08T09:41:45;1.50;;;1.40;;
8066;SDS011;4076;48.076;9.118;2023-08-08T09:44:11;6.60;;;2.27;;
8066;SDS011;4076;48.076;9.118;2023-08-08T09:46:37;1.50;;;1.40;;
8066;SDS011;4076;48.076;9.118;2023-08-08T09:49:03;1.50;;;1.40;;
8066;SDS011;4076;48.076;9.118;2023-08-08T09:51:30;1.53;;;1.43;;
8066;SDS011;4076;48.076;9.118;2023-08-08T09:53:55;1.80;;;1.70;;
8066;SDS011;4076;48.076;9.118;2023-08-08T09:56:23;1.60;;;1.50;;
8066;SDS011;4076;48.076;9.118;2023-08-08T09:58:49;2.23;;;2.13;;
8066;SDS011;4076;48.076;9.118;2023-08-08T10:01:16;1.50;;;1.40;;
8066;SDS011;4076;48.076;9.118;2023-08-08T10:03:42;1.40;;;1.30;;
8066;SDS011;4076;48.076;9.118;2023-08-08T10:06:09;2.07;;;1.97;;
8066;SDS011;4076;48.076;9.118;2023-08-08T10:08:35;1.40;;;1.30;;
8066;SDS011;4076;48.076;9.118;2023-08-08T10:11:00;3.90;;;1.43;;
8066;SDS011;4076;48.076;9.118;2023-08-08T10:13:27;1.47;;;1.33;;
8066;SDS011;4076;48.076;9.118;2023-08-08T10:15:53;1.80;;;1.70;;
8066;SDS011;4076;48.076;9.118;2023-08-08T10:18:22;1.50;;;1.30;;
8066;SDS011;4076;48.076;9.118;2023-08-08T10:20:50;1.37;;;1.27;;
8066;SDS011;4076;48.076;9.118;2023-08-08T10:23:20;1.87;;;1.77;;
8066;SDS011;4076;48.076;9.118;2023-08-08T10:25:50;2.40;;;1.60;;
8066;SDS011;4076;48.076;9.118;2023-08-08T10:28:20;1.63;;;1.53;;
8066;SDS011;4076;48.076;9.118;2023-08-08T10:30:47;1.60;;;1.50;;
8066;SDS011;4076;48.076;9.118;2023-08-08T10:38:22;1.40;;;1.30;;
8066;SDS011;4076;48.076;9.118;2023-08-08T10:40:53;1.60;;;1.50;;
8066;SDS011;4076;48.076;9.118;2023-08-08T10:43:26;1.93;;;1.50;;
8066;SDS011;4076;48.076;9.118;2023-08-08T10:45:56;2.83;;;2.10;;
8066;SDS011;4076;48.076;9.118;2023-08-08T10:48:23;1.53;;;1.43;;
8066;SDS011;4076;48.076;9.118;2023-08-08T10:50:49;1.63;;;1.53;;
8066;SDS011;4076;48.076;9.118;2023-08-08T10:53:15;2.60;;;1.53;;
8066;SDS011;4076;48.076;9.118;2023-08-08T10:55:41;1.57;;;1.47;;
8066;SDS011;4076;48.076;9.118;2023-08-08T10:58:10;1.30;;;1.20;;
8066;SDS011;4076;48.076;9.118;2023-08-08T11:00:38;2.17;;;2.03;;
8066;SDS011;4076;48.076;9.118;2023-08-08T11:03:05;1.30;;;1.20;;
8066;SDS011;4076;48.076;9.118;2023-08-08T11:05:33;1.60;;;1.50;;
8066;SDS011;4076;48.076;9.118;2023-08-08T11:08:01;1.60;;;1.50;;
8066;SDS011;4076;48.076;9.118;2023-08-08T11:10:27;2.00;;;1.40;;
8066;SDS011;4076;48.076;9.118;2023-08-08T11:13:00;1.63;;;1.53;;
8066;SDS011;4076;48.076;9.118;2023-08-08T11:15:28;1.70;;;1.60;;
8066;SDS011;4076;48.076;9.118;2023-08-08T11:17:56;1.50;;;1.40;;
8066;SDS011;4076;48.076;9.118;2023-08-08T11:20:23;1.60;;;1.50;;
8066;SDS011;4076;48.076;9.118;2023-08-08T11:22:53;1.33;;;1.23;;
8066;SDS011;4076;48.076;9.118;2023-08-08T11:25:20;2.23;;;2.10;;
8066;SDS011;4076;48.076;9.118;2023-08-08T11:27:52;1.53;;;1.43;;
8066;SDS011;4076;48.076;9.118;2023-08-08T11:30:19;2.20;;;1.40;;
8066;SDS011;4076;48.076;9.118;2023-08-08T11:32:46;1.57;;;1.47;;
8066;SDS011;4076;48.076;9.118;2023-08-08T11:35:16;1.53;;;1.43;;
8066;SDS011;4076;48.076;9.118;2023-08-08T11:37:44;1.23;;;1.13;;
8066;SDS011;4076;48.076;9.118;2023-08-08T11:40:11;1.50;;;1.40;;
8066;SDS011;4076;48.076;9.118;2023-08-08T11:42:37;1.67;;;1.57;;
8066;SDS011;4076;48.076;9.118;2023-08-08T11:45:03;2.27;;;1.60;;
8066;SDS011;4076;48.076;9.118;2023-08-08T11:47:29;1.47;;;1.37;;
8066;SDS011;4076;48.076;9.118;2023-08-08T11:50:00;1.50;;;1.40;;
8066;SDS011;4076;48.076;9.118;2023-08-08T11:52:27;2.53;;;2.37;;
8066;SDS011;4076;48.076;9.118;2023-08-08T11:54:53;1.60;;;1.50;;
8066;SDS011;4076;48.076;9.118;2023-08-08T11:57:19;2.03;;;1.20;;
8066;SDS011;4076;48.076;9.118;2023-08-08T11:59:44;2.23;;;1.70;;
8066;SDS011;4076;48.076;9.118;2023-08-08T12:02:12;3.10;;;1.93;;
8066;SDS011;4076;48.076;9.118;2023-08-08T12:04:38;1.80;;;1.50;;
8066;SDS011;4076;48.076;9.118;2023-08-08T12:07:04;1.73;;;1.43;;
8066;SDS011;4076;48.076;9.118;2023-08-08T12:09:33;1.43;;;1.33;;
8066;SDS011;4076;48.076;9.118;2023-08-08T12:11:59;1.30;;;1.20;;
8066;SDS011;4076;48.076;9.118;2023-08-08T12:14:25;2.17;;;2.07;;
8066;SDS011;4076;48.076;9.118;2023-08-08T12:16:51;1.57;;;1.30;;
8066;SDS011;4076;48.076;9.118;2023-08-08T12:19:22;1.90;;;1.80;;
8066;SDS011;4076;48.076;9.118;2023-08-08T12:21:49;2.47;;;2.37;;
8066;SDS011;4076;48.076;9.118;2023-08-08T12:24:16;14.27;;;11.73;;
8066;SDS011;4076;48.076;9.118;2023-08-08T12:26:42;19.27;;;17.07;;
8066;SDS011;4076;48.076;9.118;2023-08-08T12:29:08;21.37;;;18.60;;
8066;SDS011;4076;48.076;9.118;2023-08-08T12:31:34;19.00;;;16.27;;
8066;SDS011;4076;48.076;9.118;2023-08-08T12:33:59;47.03;;;40.00;;
8066;SDS011;4076;48.076;9.118;2023-08-08T12:36:25;19.30;;;15.83;;
8066;SDS011;4076;48.076;9.118;2023-08-08T12:38:51;13.30;;;12.10;;
8066;SDS011;4076;48.076;9.118;2023-08-08T12:41:17;5.47;;;4.97;;
8066;SDS011;4076;48.076;9.118;2023-08-08T12:43:42;20.63;;;18.53;;
8066;SDS011;4076;48.076;9.118;2023-08-08T12:46:08;44.50;;;35.90;;
8066;SDS011;4076;48.076;9.118;2023-08-08T12:48:34;16.17;;;14.70;;
8066;SDS011;4076;48.076;9.118;2023-08-08T12:51:00;42.20;;;37.70;;
8066;SDS011;4076;48.076;9.118;2023-08-08T12:53:25;38.63;;;34.57;;
8066;SDS011;4076;48.076;9.118;2023-08-08T12:55:51;79.60;;;58.93;;
8066;SDS011;4076;48.076;9.118;2023-08-08T12:58:17;33.57;;;29.83;;
8066;SDS011;4076;48.076;9.118;2023-08-08T13:00:42;16.47;;;14.80;;
8066;SDS011;4076;48.076;9.118;2023-08-08T13:03:08;7.20;;;6.50;;
8066;SDS011;4076;48.076;9.118;2023-08-08T13:05:35;3.50;;;2.97;;
8066;SDS011;4076;48.076;9.118;2023-08-08T13:08:01;2.13;;;1.73;;
8066;SDS011;4076;48.076;9.118;2023-08-08T13:10:26;1.40;;;1.30;;
8066;SDS011;4076;48.076;9.118;2023-08-08T13:12:53;1.93;;;1.83;;
8066;SDS011;4076;48.076;9.118;2023-08-08T13:15:20;1.77;;;1.67;;
8066;SDS011;4076;48.076;9.118;2023-08-08T13:17:45;2.07;;;1.83;;
8066;SDS011;4076;48.076;9.118;2023-08-08T13:20:11;2.27;;;1.97;;
8066;SDS011;4076;48.076;9.118;2023-08-08T13:22:37;1.90;;;1.50;;
8066;SDS011;4076;48.076;9.118;2023-08-08T13:25:03;1.37;;;1.27;;
8066;SDS011;4076;48.076;9.118;2023-08-08T13:27:30;1.57;;;1.40;;
8066;SDS011;4076;48.076;9.118;2023-08-08T13:29:56;2.00;;;1.90;;
8066;SDS011;4076;48.076;9.118;2023-08-08T13:32:22;2.00;;;1.80;;
8066;SDS011;4076;48.076;9.118;2023-08-08T13:34:48;1.67;;;1.30;;
8066;SDS011;4076;48.076;9.118;2023-08-08T13:37:14;1.50;;;1.40;;
8066;SDS011;4076;48.076;9.118;2023-08-08T13:39:41;7.10;;;1.60;;
8066;SDS011;4076;48.076;9.118;2023-08-08T13:42:07;1.50;;;1.40;;
8066;SDS011;4076;48.076;9.118;2023-08-08T13:44:33;1.47;;;1.37;;
8066;SDS011;4076;48.076;9.118;2023-08-08T13:46:59;1.83;;;1.73;;
8066;SDS011;4076;48.076;9.118;2023-08-08T13:49:25;1.93;;;1.83;;
8066;SDS011;4076;48.076;9.118;2023-08-08T13:51:52;1.53;;;1.43;;
8066;SDS011;4076;48.076;9.118;2023-08-08T13:54:18;1.40;;;1.30;;
8066;SDS011;4076;48.076;9.118;2023-08-08T13:56:44;1.40;;;1.30;;
8066;SDS011;4076;48.076;9.118;2023-08-08T13:59:10;2.00;;;1.90;;
8066;SDS011;4076;48.076;9.118;2023-08-08T14:01:36;1.50;;;1.40;;
8066;SDS011;4076;48.076;9.118;2023-08-08T14:04:02;1.47;;;1.37;;
8066;SDS011;4076;48.076;9.118;2023-08-08T14:06:28;1.90;;;1.70;;
8066;SDS011;4076;48.076;9.118;2023-08-08T14:08:54;1.47;;;1.23;;
8066;SDS011;4076;48.076;9.118;2023-08-08T14:11:19;1.67;;;1.57;;
8066;SDS011;4076;48.076;9.118;2023-08-08T14:13:45;1.60;;;1.50;;
8066;SDS011;4076;48.076;9.118;2023-08-08T14:16:11;1.43;;;1.33;;
8066;SDS011;4076;48.076;9.118;2023-08-08T14:18:37;1.80;;;1.70;;
8066;SDS011;4076;48.076;9.118;2023-08-08T14:21:02;1.60;;;1.50;;
8066;SDS011;4076;48.076;9.118;2023-08-08T14:23:29;1.57;;;1.47;;
8066;SDS011;4076;48.076;9.118;2023-08-08T14:25:55;1.60;;;1.50;;
8066;SDS011;4076;48.076;9.118;2023-08-08T14:28:21;3.37;;;2.17;;
8066;SDS011;4076;48.076;9.118;2023-08-08T14:30:46;1.37;;;1.27;;
8066;SDS011;4076;48.076;9.118;2023-08-08T14:33:12;1.80;;;1.70;;
8066;SDS011;4076;48.076;9.118;2023-08-08T14:35:39;1.70;;;1.60;;
8066;SDS011;4076;48.076;9.118;2023-08-08T14:38:05;3.00;;;1.87;;
8066;SDS011;4076;48.076;9.118;2023-08-08T14:40:31;2.00;;;1.90;;
8066;SDS011;4076;48.076;9.118;2023-08-08T14:42:57;1.50;;;1.40;;
8066;SDS011;4076;48.076;9.118;2023-08-08T14:45:23;1.97;;;1.70;;
8066;SDS011;4076;48.076;9.118;2023-08-08T14:47:49;1.40;;;1.30;;
8066;SDS011;4076;48.076;9.118;2023-08-08T14:50:15;1.70;;;1.60;;
8066;SDS011;4076;48.076;9.118;2023-08-08T14:52:41;3.50;;;3.10;;
8066;SDS011;4076;48.076;9.118;2023-08-08T14:55:07;2.30;;;1.57;;
8066;SDS011;4076;48.076;9.118;2023-08-08T14:57:33;2.87;;;2.67;;
8066;SDS011;4076;48.076;9.118;2023-08-08T14:59:59;1.90;;;1.80;;
8066;SDS011;4076;48.076;9.118;2023-08-08T15:02:29;1.30;;;1.20;;
8066;SDS011;4076;48.076;9.118;2023-08-08T15:04:54;1.50;;;1.40;;
8066;SDS011;4076;48.076;9.118;2023-08-08T15:07:20;2.47;;;2.00;;
8066;SDS011;4076;48.076;9.118;2023-08-08T15:09:45;1.50;;;1.40;;
8066;SDS011;4076;48.076;9.118;2023-08-08T15:12:14;1.70;;;1.60;;
8066;SDS011;4076;48.076;9.118;2023-08-08T15:14:41;1.40;;;1.30;;
8066;SDS011;4076;48.076;9.118;2023-08-08T15:17:06;1.70;;;1.60;;